BAW63H KMCO-EGKK
Flight info
| Callsign | BAW63H |
|---|---|
| Flight time | N/A |
| Altitude | 37000 |
| Route | MZULO3 LENDS DCT UKOKA/M082F370 M202 KINER DCT SOORY/M082F390 DCT 42N050W 44N040W 46N030W 47N020W 48N015W DCT OMOKO DCT GUNSO DCT GAPLI/N0470F390 DCT SIDDI DCT DAWLY DCT ELRIP DCT OTMET OTMET1G |
| Aircraft | B772/H-SDE1E3FGHIJ3J5J6M1M2P2RWXYZ/LB1D1 |
Departure
| Time | 2026-04-26 13:47 |
|---|---|
| Airport | Orlando International Airport (KMCO) |
Arrival
| Time | N/A |
|---|---|
| Airport | London Gatwick Airport (EGKK) |
| Time | Latitude | Longitude | Altitude | Speed | Heading |
|---|---|---|---|---|---|
| 2026-04-26 13:28 | 28.41093 | -81.31614 | 99 ft | 0 kts | 360° |
| 2026-04-26 13:35 | 28.41092 | -81.31614 | 99 ft | 2 kts | 0° |
| 2026-04-26 13:36 | 28.41067 | -81.31615 | 99 ft | 4 kts | 6° |
| 2026-04-26 13:36 | 28.41040 | -81.31618 | 99 ft | 4 kts | 3° |
| 2026-04-26 13:36 | 28.41017 | -81.31616 | 98 ft | 4 kts | 331° |
| 2026-04-26 13:36 | 28.41001 | -81.31604 | 97 ft | 4 kts | 298° |
| 2026-04-26 13:37 | 28.40995 | -81.31578 | 98 ft | 4 kts | 271° |
| 2026-04-26 13:37 | 28.40995 | -81.31561 | 96 ft | 0 kts | 269° |
| 2026-04-26 13:38 | 28.40995 | -81.31592 | 99 ft | 7 kts | 269° |
| 2026-04-26 13:38 | 28.40995 | -81.31648 | 99 ft | 7 kts | 270° |
| 2026-04-26 13:39 | 28.40995 | -81.31702 | 99 ft | 4 kts | 270° |
| 2026-04-26 13:39 | 28.40995 | -81.31728 | 99 ft | 2 kts | 270° |
| 2026-04-26 13:39 | 28.40995 | -81.31747 | 99 ft | 4 kts | 270° |
| 2026-04-26 13:39 | 28.41015 | -81.31800 | 100 ft | 10 kts | 327° |
| 2026-04-26 13:40 | 28.41146 | -81.31807 | 100 ft | 30 kts | 359° |
| 2026-04-26 13:40 | 28.41319 | -81.31805 | 103 ft | 21 kts | 0° |
| 2026-04-26 13:40 | 28.41466 | -81.31792 | 105 ft | 21 kts | 7° |
| 2026-04-26 13:40 | 28.41614 | -81.31790 | 103 ft | 21 kts | 360° |
| 2026-04-26 13:41 | 28.41743 | -81.31805 | 103 ft | 15 kts | 322° |
| 2026-04-26 13:41 | 28.41786 | -81.31871 | 104 ft | 8 kts | 343° |
| 2026-04-26 13:41 | 28.41901 | -81.31879 | 105 ft | 20 kts | 358° |
| 2026-04-26 13:41 | 28.42040 | -81.31881 | 104 ft | 20 kts | 3° |
| 2026-04-26 13:42 | 28.42178 | -81.31856 | 104 ft | 20 kts | 15° |
| 2026-04-26 13:42 | 28.42316 | -81.31832 | 105 ft | 20 kts | 0° |
| 2026-04-26 13:42 | 28.42456 | -81.31832 | 106 ft | 20 kts | 360° |
| 2026-04-26 13:42 | 28.42596 | -81.31834 | 107 ft | 20 kts | 359° |
| 2026-04-26 13:43 | 28.42735 | -81.31835 | 106 ft | 20 kts | 359° |
| 2026-04-26 13:43 | 28.42903 | -81.31837 | 104 ft | 28 kts | 359° |
| 2026-04-26 13:43 | 28.43095 | -81.31839 | 103 ft | 28 kts | 359° |
| 2026-04-26 13:43 | 28.43282 | -81.31841 | 103 ft | 28 kts | 359° |
| 2026-04-26 13:44 | 28.43479 | -81.31845 | 103 ft | 28 kts | 0° |
| 2026-04-26 13:44 | 28.43670 | -81.31845 | 104 ft | 28 kts | 359° |
| 2026-04-26 13:44 | 28.43862 | -81.31847 | 104 ft | 28 kts | 360° |
| 2026-04-26 13:44 | 28.44048 | -81.31896 | 104 ft | 28 kts | 350° |
| 2026-04-26 13:45 | 28.44240 | -81.31902 | 104 ft | 28 kts | 360° |
| 2026-04-26 13:45 | 28.44432 | -81.31903 | 103 ft | 28 kts | 359° |
| 2026-04-26 13:45 | 28.44623 | -81.31906 | 103 ft | 28 kts | 359° |
| 2026-04-26 13:45 | 28.44791 | -81.31912 | 104 ft | 16 kts | 344° |
| 2026-04-26 13:46 | 28.44825 | -81.32022 | 104 ft | 16 kts | 270° |
| 2026-04-26 13:46 | 28.44825 | -81.32146 | 103 ft | 16 kts | 270° |
| 2026-04-26 13:46 | 28.44769 | -81.32232 | 103 ft | 17 kts | 180° |
| 2026-04-26 13:46 | 28.44507 | -81.32228 | 104 ft | 68 kts | 179° |
| 2026-04-26 13:47 | 28.43801 | -81.32222 | 106 ft | 133 kts | 180° |
| 2026-04-26 13:47 | 28.42691 | -81.32210 | 181 ft | 179 kts | 178° |
| 2026-04-26 13:47 | 28.41486 | -81.32143 | 972 ft | 164 kts | 178° |
| 2026-04-26 13:47 | 28.40309 | -81.32072 | 1510 ft | 175 kts | 183° |
| 2026-04-26 13:48 | 28.39074 | -81.32003 | 2029 ft | 185 kts | 161° |
| 2026-04-26 13:48 | 28.38119 | -81.31022 | 2522 ft | 193 kts | 118° |
| 2026-04-26 13:48 | 28.37788 | -81.29528 | 3098 ft | 200 kts | 89° |
| 2026-04-26 13:48 | 28.38054 | -81.27948 | 3486 ft | 213 kts | 77° |
| 2026-04-26 13:49 | 28.38430 | -81.26227 | 3663 ft | 237 kts | 77° |
| 2026-04-26 13:49 | 28.38849 | -81.24317 | 3832 ft | 260 kts | 76° |
| 2026-04-26 13:49 | 28.39300 | -81.22254 | 4225 ft | 274 kts | 77° |
| 2026-04-26 13:49 | 28.39709 | -81.20106 | 4789 ft | 281 kts | 79° |
| 2026-04-26 13:50 | 28.40096 | -81.17926 | 5363 ft | 286 kts | 79° |
| 2026-04-26 13:50 | 28.40505 | -81.15680 | 5996 ft | 289 kts | 78° |
| 2026-04-26 13:50 | 28.40937 | -81.13444 | 6611 ft | 291 kts | 77° |
| 2026-04-26 13:50 | 28.41402 | -81.11154 | 7200 ft | 294 kts | 76° |
| 2026-04-26 13:51 | 28.41883 | -81.08869 | 7777 ft | 296 kts | 76° |
| 2026-04-26 13:51 | 28.42374 | -81.06591 | 8334 ft | 298 kts | 75° |
| 2026-04-26 13:51 | 28.42874 | -81.04296 | 8884 ft | 301 kts | 75° |
| 2026-04-26 13:51 | 28.43382 | -81.01980 | 9420 ft | 303 kts | 75° |
| 2026-04-26 13:52 | 28.43897 | -80.99643 | 9959 ft | 305 kts | 75° |
| 2026-04-26 13:52 | 28.44419 | -80.97279 | 10275 ft | 316 kts | 75° |
| 2026-04-26 13:52 | 28.44968 | -80.94794 | 10388 ft | 332 kts | 75° |
| 2026-04-26 13:52 | 28.45544 | -80.92181 | 10532 ft | 350 kts | 75° |
| 2026-04-26 13:53 | 28.46142 | -80.89471 | 10883 ft | 362 kts | 75° |
| 2026-04-26 13:53 | 28.46759 | -80.86664 | 11394 ft | 369 kts | 75° |
| 2026-04-26 13:53 | 28.47385 | -80.83814 | 12074 ft | 374 kts | 75° |
| 2026-04-26 13:53 | 28.47910 | -80.80908 | 12831 ft | 378 kts | 81° |
| 2026-04-26 13:54 | 28.48255 | -80.77931 | 13535 ft | 383 kts | 82° |
| 2026-04-26 13:54 | 28.48574 | -80.74903 | 14176 ft | 389 kts | 82° |
| 2026-04-26 13:54 | 28.48894 | -80.71834 | 14828 ft | 392 kts | 82° |
| 2026-04-26 13:55 | 28.49559 | -80.65608 | 16144 ft | 399 kts | 81° |
| 2026-04-26 13:55 | 28.49786 | -80.63527 | 16553 ft | 402 kts | 81° |
| 2026-04-26 13:55 | 28.50605 | -80.56081 | 17992 ft | 411 kts | 81° |
| 2026-04-26 13:56 | 28.50962 | -80.52841 | 18549 ft | 415 kts | 81° |
| 2026-04-26 13:56 | 28.51322 | -80.49571 | 19079 ft | 418 kts | 81° |
| 2026-04-26 13:56 | 28.51682 | -80.46285 | 19587 ft | 421 kts | 81° |
| 2026-04-26 13:56 | 28.52044 | -80.42975 | 20101 ft | 424 kts | 81° |
| 2026-04-26 13:57 | 28.52409 | -80.39630 | 20596 ft | 427 kts | 81° |
| 2026-04-26 13:57 | 28.52776 | -80.36262 | 21098 ft | 431 kts | 81° |
| 2026-04-26 13:57 | 28.53148 | -80.32873 | 21568 ft | 434 kts | 79° |
| 2026-04-26 13:57 | 28.53731 | -80.29499 | 22026 ft | 435 kts | 72° |
| 2026-04-26 13:58 | 28.54614 | -80.26216 | 22494 ft | 436 kts | 66° |
| 2026-04-26 13:58 | 28.55783 | -80.23023 | 22961 ft | 438 kts | 63° |
| 2026-04-26 13:58 | 28.57012 | -80.19837 | 23423 ft | 441 kts | 63° |
| 2026-04-26 13:58 | 28.58255 | -80.16640 | 23831 ft | 445 kts | 63° |
| 2026-04-26 13:59 | 28.59505 | -80.13406 | 24243 ft | 447 kts | 63° |
| 2026-04-26 13:59 | 28.60755 | -80.10148 | 24657 ft | 450 kts | 63° |
| 2026-04-26 13:59 | 28.62004 | -80.06867 | 25048 ft | 453 kts | 63° |
| 2026-04-26 14:00 | 28.65775 | -79.96888 | 26224 ft | 461 kts | 63° |
| 2026-04-26 14:00 | 28.67041 | -79.93526 | 26630 ft | 464 kts | 63° |
| 2026-04-26 14:00 | 28.67898 | -79.91250 | 26893 ft | 465 kts | 63° |
| 2026-04-26 14:01 | 28.69595 | -79.86738 | 27428 ft | 468 kts | 63° |
| 2026-04-26 14:01 | 28.70879 | -79.83323 | 27811 ft | 471 kts | 63° |
| 2026-04-26 14:01 | 28.72171 | -79.79882 | 28200 ft | 473 kts | 63° |
| 2026-04-26 14:01 | 28.73466 | -79.76431 | 28581 ft | 476 kts | 63° |
| 2026-04-26 14:02 | 28.74768 | -79.72957 | 28937 ft | 478 kts | 62° |
| 2026-04-26 14:02 | 28.76076 | -79.69463 | 29314 ft | 481 kts | 63° |
| 2026-04-26 14:02 | 28.77390 | -79.65948 | 29685 ft | 483 kts | 63° |
| 2026-04-26 14:02 | 28.78710 | -79.62418 | 30041 ft | 485 kts | 62° |
| 2026-04-26 14:03 | 28.80045 | -79.58874 | 30341 ft | 487 kts | 61° |
| 2026-04-26 14:03 | 28.81569 | -79.55448 | 30644 ft | 485 kts | 56° |
| 2026-04-26 14:03 | 28.83386 | -79.52213 | 30931 ft | 482 kts | 50° |
| 2026-04-26 14:03 | 28.85356 | -79.49111 | 31221 ft | 483 kts | 49° |
| 2026-04-26 14:04 | 28.87343 | -79.46013 | 31478 ft | 485 kts | 49° |
| 2026-04-26 14:04 | 28.89339 | -79.42898 | 31706 ft | 488 kts | 49° |
| 2026-04-26 14:04 | 28.91340 | -79.39755 | 31933 ft | 490 kts | 50° |
| 2026-04-26 14:04 | 28.93338 | -79.36593 | 32128 ft | 492 kts | 50° |
| 2026-04-26 14:05 | 28.95335 | -79.33416 | 32352 ft | 494 kts | 50° |
| 2026-04-26 14:05 | 28.97338 | -79.30218 | 32613 ft | 494 kts | 50° |
| 2026-04-26 14:05 | 28.99335 | -79.27021 | 32923 ft | 494 kts | 50° |
| 2026-04-26 14:05 | 29.01326 | -79.23832 | 33271 ft | 493 kts | 50° |
| 2026-04-26 14:06 | 29.02640 | -79.21726 | 33486 ft | 492 kts | 50° |
| 2026-04-26 14:06 | 29.04627 | -79.18542 | 33786 ft | 491 kts | 50° |
| 2026-04-26 14:06 | 29.06610 | -79.15363 | 34052 ft | 491 kts | 50° |
| 2026-04-26 14:06 | 29.08593 | -79.12183 | 34294 ft | 491 kts | 50° |
| 2026-04-26 14:07 | 29.10573 | -79.09006 | 34528 ft | 492 kts | 50° |
| 2026-04-26 14:07 | 29.12560 | -79.05814 | 34758 ft | 491 kts | 51° |
| 2026-04-26 14:07 | 29.14540 | -79.02632 | 34989 ft | 492 kts | 51° |
| 2026-04-26 14:07 | 29.16521 | -78.99445 | 35218 ft | 492 kts | 51° |
| 2026-04-26 14:08 | 29.18501 | -78.96259 | 35441 ft | 492 kts | 51° |
| 2026-04-26 14:08 | 29.20484 | -78.93063 | 35657 ft | 492 kts | 51° |
| 2026-04-26 14:08 | 29.22465 | -78.89870 | 35881 ft | 492 kts | 51° |
| 2026-04-26 14:08 | 29.24449 | -78.86668 | 36076 ft | 492 kts | 51° |
| 2026-04-26 14:09 | 29.26431 | -78.83467 | 36298 ft | 492 kts | 51° |
| 2026-04-26 14:09 | 29.28410 | -78.80267 | 36512 ft | 492 kts | 51° |
| 2026-04-26 14:09 | 29.30387 | -78.77070 | 36708 ft | 492 kts | 51° |
| 2026-04-26 14:09 | 29.32365 | -78.73867 | 36887 ft | 493 kts | 51° |
| 2026-04-26 14:10 | 29.34352 | -78.70650 | 36945 ft | 496 kts | 52° |
| 2026-04-26 14:10 | 29.38537 | -78.64375 | 36987 ft | 495 kts | 45° |
| 2026-04-26 14:11 | 29.45435 | -78.55637 | 36988 ft | 490 kts | 44° |
| 2026-04-26 14:11 | 29.50007 | -78.49859 | 36990 ft | 489 kts | 45° |
| 2026-04-26 14:12 | 29.54551 | -78.44054 | 36991 ft | 489 kts | 45° |
| 2026-04-26 14:12 | 29.59093 | -78.38220 | 36996 ft | 490 kts | 45° |
| 2026-04-26 14:13 | 29.65931 | -78.29420 | 36997 ft | 494 kts | 46° |
| 2026-04-26 14:14 | 29.70517 | -78.23510 | 37014 ft | 496 kts | 46° |
| 2026-04-26 14:14 | 29.75119 | -78.17570 | 37006 ft | 498 kts | 46° |
| 2026-04-26 14:15 | 29.79736 | -78.11602 | 37001 ft | 500 kts | 46° |
| 2026-04-26 14:15 | 29.84368 | -78.05607 | 37001 ft | 501 kts | 46° |
| 2026-04-26 14:16 | 29.89003 | -77.99597 | 36994 ft | 502 kts | 46° |
| 2026-04-26 14:16 | 29.93634 | -77.93584 | 36994 ft | 502 kts | 46° |
| 2026-04-26 14:17 | 29.96996 | -77.89214 | 36992 ft | 502 kts | 46° |
| 2026-04-26 14:17 | 30.01627 | -77.83184 | 37000 ft | 502 kts | 46° |
| 2026-04-26 14:18 | 30.06258 | -77.77147 | 37000 ft | 502 kts | 46° |
| 2026-04-26 14:18 | 30.10884 | -77.71106 | 36992 ft | 502 kts | 46° |
| 2026-04-26 14:19 | 30.15511 | -77.65055 | 36993 ft | 503 kts | 46° |
| 2026-04-26 14:19 | 30.20142 | -77.58989 | 36996 ft | 503 kts | 46° |
| 2026-04-26 14:20 | 30.24748 | -77.52946 | 36996 ft | 504 kts | 47° |
| 2026-04-26 14:20 | 30.29383 | -77.46856 | 36996 ft | 505 kts | 47° |
| 2026-04-26 14:21 | 30.34029 | -77.40742 | 36996 ft | 506 kts | 47° |
| 2026-04-26 14:21 | 30.38682 | -77.34611 | 36997 ft | 507 kts | 47° |
| 2026-04-26 14:22 | 30.43334 | -77.28469 | 36995 ft | 508 kts | 47° |
| 2026-04-26 14:22 | 30.47991 | -77.22311 | 36994 ft | 508 kts | 47° |
| 2026-04-26 14:23 | 30.52677 | -77.16106 | 36993 ft | 508 kts | 47° |
| 2026-04-26 14:23 | 30.57300 | -77.09973 | 36992 ft | 508 kts | 47° |
| 2026-04-26 14:24 | 30.61981 | -77.03753 | 36991 ft | 508 kts | 47° |
| 2026-04-26 14:24 | 30.66626 | -76.97576 | 36987 ft | 506 kts | 47° |
| 2026-04-26 14:25 | 30.71203 | -76.91503 | 36989 ft | 501 kts | 47° |
| 2026-04-26 14:25 | 30.75785 | -76.85420 | 36995 ft | 498 kts | 47° |
| 2026-04-26 14:26 | 30.80338 | -76.79363 | 36994 ft | 497 kts | 47° |
| 2026-04-26 14:26 | 30.84889 | -76.73295 | 36998 ft | 498 kts | 47° |
| 2026-04-26 14:27 | 30.89442 | -76.67216 | 36998 ft | 499 kts | 47° |
| 2026-04-26 14:27 | 30.94005 | -76.61113 | 37000 ft | 500 kts | 47° |
| 2026-04-26 14:28 | 30.98579 | -76.54985 | 36998 ft | 502 kts | 47° |
| 2026-04-26 14:28 | 31.03166 | -76.48831 | 36995 ft | 503 kts | 47° |
| 2026-04-26 14:29 | 31.07759 | -76.42658 | 36995 ft | 504 kts | 47° |
| 2026-04-26 14:29 | 31.12357 | -76.36468 | 36997 ft | 505 kts | 47° |
| 2026-04-26 14:30 | 31.16954 | -76.30270 | 36999 ft | 505 kts | 47° |
| 2026-04-26 14:30 | 31.21546 | -76.24069 | 36997 ft | 505 kts | 47° |
| 2026-04-26 14:31 | 31.26139 | -76.17856 | 36999 ft | 505 kts | 47° |
| 2026-04-26 14:31 | 31.30721 | -76.11648 | 36998 ft | 504 kts | 47° |
| 2026-04-26 14:32 | 31.35304 | -76.05429 | 37002 ft | 504 kts | 47° |
| 2026-04-26 14:32 | 31.39878 | -75.99212 | 37000 ft | 504 kts | 47° |
| 2026-04-26 14:33 | 31.44452 | -75.92984 | 36997 ft | 504 kts | 47° |
| 2026-04-26 14:33 | 31.49024 | -75.86749 | 36998 ft | 505 kts | 47° |
| 2026-04-26 14:34 | 31.53602 | -75.80496 | 37000 ft | 505 kts | 47° |
| 2026-04-26 14:34 | 31.58179 | -75.74233 | 36998 ft | 506 kts | 47° |
| 2026-04-26 14:35 | 31.62872 | -75.67802 | 36999 ft | 507 kts | 47° |
| 2026-04-26 14:35 | 31.67448 | -75.61520 | 37000 ft | 507 kts | 47° |
| 2026-04-26 14:36 | 31.72045 | -75.55199 | 37003 ft | 508 kts | 47° |
| 2026-04-26 14:36 | 31.76631 | -75.48882 | 37003 ft | 509 kts | 47° |
| 2026-04-26 14:37 | 31.81222 | -75.42548 | 37005 ft | 509 kts | 47° |
| 2026-04-26 14:37 | 31.85817 | -75.36198 | 37007 ft | 510 kts | 48° |
| 2026-04-26 14:38 | 31.90410 | -75.29840 | 37007 ft | 510 kts | 48° |
| 2026-04-26 14:38 | 31.95002 | -75.23472 | 37005 ft | 510 kts | 48° |
| 2026-04-26 14:39 | 31.99587 | -75.17103 | 37006 ft | 510 kts | 48° |
| 2026-04-26 14:39 | 32.04184 | -75.10707 | 37007 ft | 510 kts | 48° |
| 2026-04-26 14:40 | 32.08740 | -75.04357 | 37007 ft | 510 kts | 48° |
| 2026-04-26 14:40 | 32.13320 | -74.97963 | 37006 ft | 510 kts | 48° |
| 2026-04-26 14:41 | 32.17927 | -74.91520 | 37008 ft | 510 kts | 48° |
| 2026-04-26 14:41 | 32.22469 | -74.85158 | 37006 ft | 510 kts | 48° |
| 2026-04-26 14:42 | 32.27037 | -74.78747 | 37003 ft | 510 kts | 48° |
| 2026-04-26 14:42 | 32.31610 | -74.72319 | 37004 ft | 511 kts | 48° |
| 2026-04-26 14:43 | 32.36176 | -74.65889 | 37011 ft | 511 kts | 48° |
| 2026-04-26 14:43 | 32.40746 | -74.59443 | 37007 ft | 511 kts | 48° |
| 2026-04-26 14:44 | 32.44575 | -74.54034 | 37010 ft | 511 kts | 48° |
| 2026-04-26 14:44 | 32.49142 | -74.47571 | 37008 ft | 512 kts | 48° |
| 2026-04-26 14:45 | 32.53711 | -74.41095 | 37010 ft | 512 kts | 48° |
| 2026-04-26 14:45 | 32.58276 | -74.34612 | 37007 ft | 513 kts | 48° |
| 2026-04-26 14:46 | 32.62847 | -74.28110 | 37009 ft | 513 kts | 49° |
| 2026-04-26 14:46 | 32.67416 | -74.21598 | 37007 ft | 514 kts | 49° |
| 2026-04-26 14:47 | 32.71987 | -74.15074 | 37008 ft | 514 kts | 49° |
| 2026-04-26 14:47 | 32.76557 | -74.08538 | 37007 ft | 514 kts | 49° |
| 2026-04-26 14:48 | 32.81119 | -74.02003 | 37006 ft | 514 kts | 49° |
| 2026-04-26 14:48 | 32.85687 | -73.95447 | 37010 ft | 514 kts | 49° |
| 2026-04-26 14:49 | 32.90244 | -73.88897 | 37007 ft | 514 kts | 49° |
| 2026-04-26 14:49 | 32.94808 | -73.82323 | 37010 ft | 515 kts | 49° |
| 2026-04-26 14:50 | 32.99362 | -73.75752 | 37008 ft | 515 kts | 49° |
| 2026-04-26 14:50 | 33.03921 | -73.69161 | 37008 ft | 515 kts | 49° |
| 2026-04-26 14:51 | 33.08471 | -73.62573 | 37008 ft | 515 kts | 49° |
| 2026-04-26 14:51 | 33.13026 | -73.55965 | 37008 ft | 516 kts | 49° |
| 2026-04-26 14:52 | 33.17576 | -73.49352 | 37012 ft | 516 kts | 49° |
| 2026-04-26 14:52 | 33.22137 | -73.42712 | 37012 ft | 517 kts | 49° |
| 2026-04-26 14:53 | 33.26692 | -73.36070 | 37013 ft | 517 kts | 49° |
| 2026-04-26 14:53 | 33.31257 | -73.29405 | 37016 ft | 518 kts | 49° |
| 2026-04-26 14:54 | 33.35812 | -73.22743 | 36997 ft | 518 kts | 49° |
| 2026-04-26 14:54 | 33.40370 | -73.16062 | 37006 ft | 518 kts | 49° |
| 2026-04-26 14:55 | 33.44926 | -73.09371 | 37018 ft | 519 kts | 49° |
| 2026-04-26 14:55 | 33.49479 | -73.02674 | 37011 ft | 519 kts | 49° |
| 2026-04-26 14:56 | 33.54030 | -72.95966 | 37010 ft | 519 kts | 49° |
| 2026-04-26 14:56 | 33.58582 | -72.89243 | 37011 ft | 519 kts | 49° |
| 2026-04-26 14:57 | 33.63128 | -72.82518 | 37015 ft | 519 kts | 49° |
| 2026-04-26 14:57 | 33.67666 | -72.75791 | 37016 ft | 519 kts | 49° |
| 2026-04-26 14:58 | 33.72207 | -72.69049 | 37019 ft | 518 kts | 49° |
| 2026-04-26 14:58 | 33.76734 | -72.62314 | 37015 ft | 518 kts | 49° |
| 2026-04-26 14:59 | 33.81263 | -72.55563 | 37017 ft | 518 kts | 49° |
| 2026-04-26 14:59 | 33.85791 | -72.48801 | 37023 ft | 519 kts | 49° |
| 2026-04-26 15:00 | 33.90311 | -72.42038 | 37029 ft | 519 kts | 49° |
| 2026-04-26 15:00 | 33.94837 | -72.35253 | 37021 ft | 519 kts | 49° |
| 2026-04-26 15:01 | 33.99357 | -72.28477 | 37022 ft | 520 kts | 49° |
| 2026-04-26 15:01 | 34.03950 | -72.21731 | 37024 ft | 520 kts | 48° |
| 2026-04-26 15:02 | 34.08556 | -72.15009 | 37025 ft | 521 kts | 48° |
| 2026-04-26 15:02 | 34.13166 | -72.08250 | 37022 ft | 521 kts | 49° |
| 2026-04-26 15:03 | 34.17762 | -72.01479 | 37026 ft | 521 kts | 49° |
| 2026-04-26 15:03 | 34.22353 | -71.94700 | 37024 ft | 522 kts | 49° |
| 2026-04-26 15:04 | 34.26938 | -71.87917 | 37029 ft | 521 kts | 49° |
| 2026-04-26 15:04 | 34.31526 | -71.81118 | 37026 ft | 521 kts | 49° |
| 2026-04-26 15:05 | 34.36069 | -71.74373 | 37024 ft | 520 kts | 49° |
| 2026-04-26 15:05 | 34.40633 | -71.67584 | 37033 ft | 520 kts | 49° |
| 2026-04-26 15:06 | 34.45193 | -71.60788 | 37035 ft | 519 kts | 49° |
| 2026-04-26 15:06 | 34.49739 | -71.53999 | 37030 ft | 519 kts | 49° |
| 2026-04-26 15:07 | 34.56556 | -71.43794 | 37033 ft | 518 kts | 49° |
| 2026-04-26 15:07 | 34.61092 | -71.36989 | 37029 ft | 518 kts | 49° |
| 2026-04-26 15:08 | 34.65610 | -71.30196 | 37032 ft | 518 kts | 49° |
| 2026-04-26 15:08 | 34.70168 | -71.23332 | 37031 ft | 518 kts | 49° |
| 2026-04-26 15:09 | 34.74685 | -71.16511 | 37031 ft | 518 kts | 49° |
| 2026-04-26 15:09 | 34.79166 | -71.09731 | 37031 ft | 518 kts | 49° |
| 2026-04-26 15:10 | 34.82947 | -71.03999 | 37029 ft | 518 kts | 49° |
| 2026-04-26 15:10 | 34.88210 | -70.96006 | 37030 ft | 518 kts | 49° |
| 2026-04-26 15:11 | 34.92686 | -70.89193 | 37032 ft | 518 kts | 49° |
| 2026-04-26 15:11 | 34.97221 | -70.82277 | 37022 ft | 518 kts | 49° |
| 2026-04-26 15:12 | 35.01678 | -70.75465 | 37035 ft | 518 kts | 49° |
| 2026-04-26 15:12 | 35.06177 | -70.68578 | 37029 ft | 518 kts | 49° |
| 2026-04-26 15:13 | 35.10666 | -70.61692 | 37030 ft | 518 kts | 49° |
| 2026-04-26 15:13 | 35.15147 | -70.54804 | 37029 ft | 518 kts | 50° |
| 2026-04-26 15:14 | 35.19627 | -70.47905 | 37024 ft | 518 kts | 50° |
| 2026-04-26 15:14 | 35.24125 | -70.40964 | 37029 ft | 518 kts | 50° |
| 2026-04-26 15:15 | 35.28568 | -70.34094 | 37030 ft | 518 kts | 50° |
| 2026-04-26 15:15 | 35.33029 | -70.27183 | 37037 ft | 517 kts | 50° |
| 2026-04-26 15:16 | 35.37514 | -70.20220 | 37033 ft | 517 kts | 50° |
| 2026-04-26 15:16 | 35.41942 | -70.13332 | 37022 ft | 517 kts | 50° |
| 2026-04-26 15:17 | 35.45670 | -70.07524 | 37023 ft | 517 kts | 50° |
| 2026-04-26 15:17 | 35.50864 | -69.99414 | 37040 ft | 517 kts | 50° |
| 2026-04-26 15:18 | 35.55307 | -69.92461 | 37026 ft | 517 kts | 50° |
| 2026-04-26 15:18 | 35.59708 | -69.85561 | 37028 ft | 517 kts | 50° |
| 2026-04-26 15:19 | 35.64142 | -69.78594 | 37029 ft | 517 kts | 50° |
| 2026-04-26 15:19 | 35.68572 | -69.71621 | 37032 ft | 518 kts | 50° |
| 2026-04-26 15:20 | 35.73002 | -69.64632 | 37030 ft | 518 kts | 50° |
| 2026-04-26 15:20 | 35.77435 | -69.57626 | 37029 ft | 518 kts | 50° |
| 2026-04-26 15:21 | 35.81863 | -69.50612 | 37028 ft | 519 kts | 50° |
| 2026-04-26 15:21 | 35.86289 | -69.43587 | 37032 ft | 519 kts | 50° |
| 2026-04-26 15:22 | 35.90707 | -69.36561 | 37029 ft | 519 kts | 50° |
| 2026-04-26 15:22 | 35.95128 | -69.29516 | 37036 ft | 519 kts | 50° |
| 2026-04-26 15:23 | 35.99538 | -69.22475 | 37035 ft | 519 kts | 50° |
| 2026-04-26 15:23 | 36.03950 | -69.15415 | 37037 ft | 519 kts | 50° |
| 2026-04-26 15:24 | 36.08354 | -69.08352 | 37032 ft | 519 kts | 50° |
| 2026-04-26 15:24 | 36.12014 | -69.02472 | 37034 ft | 519 kts | 50° |
| 2026-04-26 15:25 | 36.16417 | -68.95387 | 37037 ft | 519 kts | 50° |
| 2026-04-26 15:25 | 36.20817 | -68.88289 | 37040 ft | 520 kts | 50° |
| 2026-04-26 15:26 | 36.25216 | -68.81179 | 37044 ft | 520 kts | 50° |
| 2026-04-26 15:26 | 36.29612 | -68.74059 | 37047 ft | 520 kts | 50° |
| 2026-04-26 15:27 | 36.34000 | -68.66938 | 37043 ft | 520 kts | 50° |
| 2026-04-26 15:27 | 36.38390 | -68.59797 | 37048 ft | 520 kts | 50° |
| 2026-04-26 15:28 | 36.42780 | -68.52643 | 37044 ft | 521 kts | 50° |
| 2026-04-26 15:28 | 36.47159 | -68.45489 | 37050 ft | 521 kts | 50° |
| 2026-04-26 15:29 | 36.51538 | -68.38322 | 37050 ft | 521 kts | 50° |
| 2026-04-26 15:30 | 36.59101 | -68.22977 | 37056 ft | 525 kts | 68° |
| 2026-04-26 15:30 | 36.61522 | -68.14382 | 37062 ft | 526 kts | 70° |
| 2026-04-26 15:31 | 36.65024 | -68.01436 | 37061 ft | 526 kts | 70° |
| 2026-04-26 15:32 | 36.68147 | -67.90096 | 37067 ft | 527 kts | 70° |
| 2026-04-26 15:32 | 36.70964 | -67.79920 | 37072 ft | 527 kts | 70° |
| 2026-04-26 15:33 | 36.73355 | -67.71247 | 37075 ft | 528 kts | 70° |
| 2026-04-26 15:33 | 36.75734 | -67.62579 | 37075 ft | 528 kts | 70° |
| 2026-04-26 15:34 | 36.78107 | -67.53901 | 37081 ft | 529 kts | 70° |
| 2026-04-26 15:34 | 36.80477 | -67.45205 | 37083 ft | 529 kts | 70° |
| 2026-04-26 15:35 | 36.82842 | -67.36501 | 37088 ft | 530 kts | 70° |
| 2026-04-26 15:35 | 36.85201 | -67.27787 | 37094 ft | 530 kts | 70° |
| 2026-04-26 15:36 | 36.87558 | -67.19055 | 37097 ft | 531 kts | 70° |
| 2026-04-26 15:36 | 36.89911 | -67.10307 | 37107 ft | 531 kts | 70° |
| 2026-04-26 15:37 | 36.92258 | -67.01556 | 37100 ft | 532 kts | 70° |
| 2026-04-26 15:37 | 36.94600 | -66.92790 | 37111 ft | 532 kts | 70° |
| 2026-04-26 15:38 | 36.96939 | -66.84007 | 37115 ft | 532 kts | 70° |
| 2026-04-26 15:38 | 36.99270 | -66.75222 | 37116 ft | 532 kts | 70° |
| 2026-04-26 15:39 | 37.01612 | -66.66369 | 37120 ft | 532 kts | 70° |
| 2026-04-26 15:39 | 37.03537 | -66.59068 | 37119 ft | 532 kts | 70° |
| 2026-04-26 15:40 | 37.06229 | -66.48824 | 37130 ft | 532 kts | 70° |
| 2026-04-26 15:40 | 37.08531 | -66.40028 | 37130 ft | 532 kts | 70° |
| 2026-04-26 15:41 | 37.10832 | -66.31208 | 37135 ft | 532 kts | 70° |
| 2026-04-26 15:41 | 37.13125 | -66.22389 | 37134 ft | 532 kts | 70° |
| 2026-04-26 15:42 | 37.15427 | -66.13505 | 37137 ft | 532 kts | 70° |
| 2026-04-26 15:42 | 37.17707 | -66.04677 | 37142 ft | 532 kts | 70° |
| 2026-04-26 15:43 | 37.19979 | -65.95847 | 37142 ft | 532 kts | 70° |
| 2026-04-26 15:44 | 37.23362 | -65.82639 | 37147 ft | 533 kts | 70° |
| 2026-04-26 15:44 | 37.26750 | -65.69344 | 37148 ft | 533 kts | 70° |
| 2026-04-26 15:45 | 37.30126 | -65.56028 | 37153 ft | 534 kts | 70° |
| 2026-04-26 15:46 | 37.33490 | -65.42686 | 37154 ft | 534 kts | 70° |
| 2026-04-26 15:46 | 37.35350 | -65.35277 | 37159 ft | 535 kts | 71° |
| 2026-04-26 15:47 | 37.39072 | -65.20389 | 37164 ft | 535 kts | 70° |
| 2026-04-26 15:48 | 37.41298 | -65.11440 | 37166 ft | 536 kts | 71° |
| 2026-04-26 15:48 | 37.43515 | -65.02497 | 37159 ft | 536 kts | 71° |
| 2026-04-26 15:49 | 37.45729 | -64.93531 | 37161 ft | 536 kts | 71° |
| 2026-04-26 15:49 | 37.47937 | -64.84561 | 37158 ft | 536 kts | 71° |
| 2026-04-26 15:50 | 37.50138 | -64.75583 | 37164 ft | 537 kts | 71° |
| 2026-04-26 15:50 | 37.52331 | -64.66602 | 37173 ft | 537 kts | 71° |
| 2026-04-26 15:51 | 37.54521 | -64.57607 | 37172 ft | 537 kts | 71° |
| 2026-04-26 15:51 | 37.56702 | -64.48610 | 37164 ft | 537 kts | 71° |
| 2026-04-26 15:52 | 37.58874 | -64.39620 | 37166 ft | 537 kts | 71° |
| 2026-04-26 15:52 | 37.61044 | -64.30603 | 37170 ft | 537 kts | 71° |
| 2026-04-26 15:53 | 37.63205 | -64.21587 | 37168 ft | 537 kts | 71° |
| 2026-04-26 15:53 | 37.65360 | -64.12565 | 37170 ft | 537 kts | 71° |
| 2026-04-26 15:54 | 37.67507 | -64.03543 | 37168 ft | 537 kts | 71° |
| 2026-04-26 15:54 | 37.69649 | -63.94508 | 37165 ft | 537 kts | 71° |
| 2026-04-26 15:55 | 37.71783 | -63.85472 | 37170 ft | 537 kts | 71° |
| 2026-04-26 15:55 | 37.73907 | -63.76446 | 37171 ft | 537 kts | 71° |
| 2026-04-26 15:56 | 37.76026 | -63.67402 | 37171 ft | 536 kts | 71° |
| 2026-04-26 15:56 | 37.78136 | -63.58364 | 37165 ft | 536 kts | 71° |
| 2026-04-26 15:57 | 37.80243 | -63.49305 | 37168 ft | 536 kts | 71° |
| 2026-04-26 15:57 | 37.82335 | -63.40277 | 37164 ft | 536 kts | 71° |
| 2026-04-26 15:58 | 37.84435 | -63.31175 | 37161 ft | 535 kts | 71° |
| 2026-04-26 15:58 | 37.86501 | -63.22189 | 37158 ft | 535 kts | 71° |
| 2026-04-26 15:59 | 37.88572 | -63.13145 | 37157 ft | 535 kts | 71° |
| 2026-04-26 15:59 | 37.90637 | -63.04094 | 37156 ft | 535 kts | 71° |
| 2026-04-26 16:00 | 37.92694 | -62.95039 | 37156 ft | 535 kts | 71° |
| 2026-04-26 16:00 | 37.94744 | -62.85982 | 37147 ft | 535 kts | 71° |
| 2026-04-26 16:01 | 37.96789 | -62.76910 | 37148 ft | 536 kts | 71° |
| 2026-04-26 16:01 | 37.98827 | -62.67831 | 37146 ft | 536 kts | 71° |
| 2026-04-26 16:02 | 38.00863 | -62.58729 | 37144 ft | 536 kts | 71° |
| 2026-04-26 16:02 | 38.02562 | -62.51104 | 37147 ft | 537 kts | 71° |
| 2026-04-26 16:03 | 38.04573 | -62.42044 | 37144 ft | 537 kts | 71° |
| 2026-04-26 16:03 | 38.06592 | -62.32911 | 37138 ft | 538 kts | 71° |
| 2026-04-26 16:04 | 38.08608 | -62.23758 | 37124 ft | 538 kts | 71° |
| 2026-04-26 16:04 | 38.10612 | -62.14617 | 37128 ft | 539 kts | 71° |
| 2026-04-26 16:05 | 38.12616 | -62.05441 | 37122 ft | 539 kts | 71° |
| 2026-04-26 16:05 | 38.14614 | -61.96256 | 37141 ft | 540 kts | 71° |
| 2026-04-26 16:06 | 38.16614 | -61.87028 | 37146 ft | 542 kts | 71° |
| 2026-04-26 16:06 | 38.18606 | -61.77795 | 37143 ft | 542 kts | 71° |
| 2026-04-26 16:07 | 38.20593 | -61.68540 | 37145 ft | 543 kts | 71° |
| 2026-04-26 16:07 | 38.22575 | -61.59274 | 37132 ft | 543 kts | 71° |
| 2026-04-26 16:08 | 38.24546 | -61.50018 | 37143 ft | 542 kts | 71° |
| 2026-04-26 16:08 | 38.26507 | -61.40775 | 37134 ft | 542 kts | 71° |
| 2026-04-26 16:09 | 38.28462 | -61.31518 | 37138 ft | 541 kts | 71° |
| 2026-04-26 16:09 | 38.30411 | -61.22250 | 37132 ft | 541 kts | 71° |
| 2026-04-26 16:10 | 38.32349 | -61.12996 | 37140 ft | 541 kts | 71° |
| 2026-04-26 16:10 | 38.34280 | -61.03735 | 37130 ft | 541 kts | 71° |
| 2026-04-26 16:11 | 38.36205 | -60.94465 | 37129 ft | 541 kts | 71° |
| 2026-04-26 16:11 | 38.38120 | -60.85198 | 37125 ft | 541 kts | 71° |
| 2026-04-26 16:12 | 38.40030 | -60.75919 | 37131 ft | 541 kts | 71° |
| 2026-04-26 16:12 | 38.42880 | -60.61997 | 37131 ft | 541 kts | 71° |
| 2026-04-26 16:13 | 38.44772 | -60.52703 | 37127 ft | 541 kts | 71° |
| 2026-04-26 16:13 | 38.46656 | -60.43406 | 37125 ft | 541 kts | 71° |
| 2026-04-26 16:14 | 38.48535 | -60.34097 | 37116 ft | 541 kts | 71° |
| 2026-04-26 16:15 | 38.52326 | -60.20683 | 37219 ft | 532 kts | 57° |
| 2026-04-26 16:15 | 38.54036 | -60.16488 | 37480 ft | 531 kts | 56° |
| 2026-04-26 16:15 | 38.55752 | -60.12324 | 37784 ft | 530 kts | 56° |
| 2026-04-26 16:16 | 38.59170 | -60.03993 | 38338 ft | 529 kts | 57° |
| 2026-04-26 16:16 | 38.60840 | -59.99876 | 38559 ft | 529 kts | 57° |
| 2026-04-26 16:16 | 38.62526 | -59.95687 | 38788 ft | 529 kts | 57° |
| 2026-04-26 16:16 | 38.64206 | -59.91494 | 38979 ft | 529 kts | 57° |
| 2026-04-26 16:17 | 38.67564 | -59.83076 | 39095 ft | 534 kts | 57° |
| 2026-04-26 16:17 | 38.70932 | -59.74607 | 39098 ft | 532 kts | 57° |
| 2026-04-26 16:18 | 38.75911 | -59.62043 | 39087 ft | 525 kts | 57° |
| 2026-04-26 16:19 | 38.80859 | -59.49530 | 39102 ft | 524 kts | 57° |
| 2026-04-26 16:20 | 38.85797 | -59.36992 | 39108 ft | 526 kts | 57° |
| 2026-04-26 16:20 | 38.90749 | -59.24363 | 39108 ft | 530 kts | 58° |
| 2026-04-26 16:21 | 38.94058 | -59.15892 | 39096 ft | 532 kts | 58° |
| 2026-04-26 16:21 | 38.97362 | -59.07410 | 39101 ft | 533 kts | 58° |
| 2026-04-26 16:22 | 39.00687 | -58.98849 | 39096 ft | 534 kts | 58° |
| 2026-04-26 16:22 | 39.04019 | -58.90246 | 39090 ft | 533 kts | 58° |
| 2026-04-26 16:23 | 39.07314 | -58.81713 | 39084 ft | 532 kts | 58° |
| 2026-04-26 16:23 | 39.10573 | -58.73249 | 39092 ft | 530 kts | 58° |
| 2026-04-26 16:24 | 39.13865 | -58.64679 | 39082 ft | 529 kts | 58° |
| 2026-04-26 16:24 | 39.17110 | -58.56206 | 39081 ft | 527 kts | 58° |
| 2026-04-26 16:25 | 39.20326 | -58.47788 | 39072 ft | 526 kts | 58° |
| 2026-04-26 16:25 | 39.23547 | -58.39331 | 39079 ft | 525 kts | 58° |
| 2026-04-26 16:26 | 39.26239 | -58.32247 | 39075 ft | 524 kts | 58° |
| 2026-04-26 16:26 | 39.29962 | -58.22420 | 39064 ft | 524 kts | 58° |
| 2026-04-26 16:27 | 39.33157 | -58.13959 | 39062 ft | 524 kts | 58° |
| 2026-04-26 16:27 | 39.36344 | -58.05498 | 39070 ft | 524 kts | 58° |
| 2026-04-26 16:28 | 39.39526 | -57.97024 | 39065 ft | 524 kts | 59° |
| 2026-04-26 16:28 | 39.42706 | -57.88533 | 39066 ft | 524 kts | 59° |
| 2026-04-26 16:29 | 39.45879 | -57.80035 | 39049 ft | 524 kts | 59° |
| 2026-04-26 16:29 | 39.49043 | -57.71536 | 39054 ft | 524 kts | 59° |
| 2026-04-26 16:30 | 39.52189 | -57.63061 | 39044 ft | 523 kts | 59° |
| 2026-04-26 16:30 | 39.55336 | -57.54561 | 39045 ft | 522 kts | 59° |
| 2026-04-26 16:31 | 39.58469 | -57.46072 | 39035 ft | 521 kts | 59° |
| 2026-04-26 16:31 | 39.61588 | -57.37599 | 39033 ft | 520 kts | 59° |
| 2026-04-26 16:32 | 39.64194 | -57.30501 | 39026 ft | 520 kts | 59° |
| 2026-04-26 16:32 | 39.67796 | -57.20661 | 39028 ft | 519 kts | 60° |
| 2026-04-26 16:33 | 39.70881 | -57.12208 | 39018 ft | 518 kts | 60° |
| 2026-04-26 16:33 | 39.73959 | -57.03748 | 39021 ft | 518 kts | 60° |
| 2026-04-26 16:34 | 39.77031 | -56.95280 | 39005 ft | 518 kts | 60° |
| 2026-04-26 16:34 | 39.80103 | -56.86790 | 39005 ft | 518 kts | 60° |
| 2026-04-26 16:35 | 39.83165 | -56.78300 | 39012 ft | 519 kts | 60° |
| 2026-04-26 16:35 | 39.86225 | -56.69793 | 39015 ft | 519 kts | 60° |
| 2026-04-26 16:36 | 39.89281 | -56.61272 | 38999 ft | 520 kts | 60° |
| 2026-04-26 16:36 | 39.92338 | -56.52724 | 39006 ft | 521 kts | 61° |
| 2026-04-26 16:37 | 39.95395 | -56.44148 | 38999 ft | 523 kts | 61° |
| 2026-04-26 16:37 | 39.97938 | -56.36995 | 38996 ft | 523 kts | 61° |
| 2026-04-26 16:38 | 40.01512 | -56.26913 | 38996 ft | 524 kts | 61° |
| 2026-04-26 16:38 | 40.04562 | -56.18279 | 38999 ft | 524 kts | 61° |
| 2026-04-26 16:39 | 40.07606 | -56.09638 | 38976 ft | 524 kts | 62° |
| 2026-04-26 16:39 | 40.10638 | -56.01003 | 38983 ft | 523 kts | 62° |
| 2026-04-26 16:40 | 40.13658 | -55.92378 | 38974 ft | 522 kts | 62° |
| 2026-04-26 16:40 | 40.16671 | -55.83749 | 38977 ft | 521 kts | 62° |
| 2026-04-26 16:41 | 40.19667 | -55.75142 | 38962 ft | 520 kts | 62° |
| 2026-04-26 16:41 | 40.22652 | -55.66539 | 38961 ft | 519 kts | 62° |
| 2026-04-26 16:42 | 40.25628 | -55.57938 | 38957 ft | 519 kts | 62° |
| 2026-04-26 16:42 | 40.28595 | -55.49335 | 38959 ft | 518 kts | 62° |
| 2026-04-26 16:43 | 40.31555 | -55.40727 | 38951 ft | 518 kts | 62° |
| 2026-04-26 16:43 | 40.34495 | -55.32152 | 38952 ft | 519 kts | 63° |
| 2026-04-26 16:44 | 40.37444 | -55.23524 | 38950 ft | 519 kts | 63° |
| 2026-04-26 16:44 | 40.40389 | -55.14884 | 38948 ft | 519 kts | 63° |
| 2026-04-26 16:45 | 40.43328 | -55.06232 | 38944 ft | 519 kts | 63° |
| 2026-04-26 16:45 | 40.45788 | -54.98969 | 38932 ft | 519 kts | 63° |
| 2026-04-26 16:46 | 40.48716 | -54.90300 | 38935 ft | 519 kts | 63° |
| 2026-04-26 16:46 | 40.52114 | -54.80207 | 38936 ft | 519 kts | 63° |
| 2026-04-26 16:47 | 40.54554 | -54.72939 | 38921 ft | 519 kts | 63° |
| 2026-04-26 16:47 | 40.57467 | -54.64235 | 38919 ft | 519 kts | 63° |
| 2026-04-26 16:48 | 40.60366 | -54.55545 | 38905 ft | 519 kts | 64° |
| 2026-04-26 16:48 | 40.63258 | -54.46848 | 38917 ft | 519 kts | 64° |
| 2026-04-26 16:49 | 40.66143 | -54.38149 | 38907 ft | 518 kts | 64° |
| 2026-04-26 16:49 | 40.69024 | -54.29432 | 38908 ft | 518 kts | 64° |
| 2026-04-26 16:50 | 40.71893 | -54.20724 | 38903 ft | 518 kts | 64° |
| 2026-04-26 16:50 | 40.74755 | -54.12010 | 38901 ft | 518 kts | 64° |
| 2026-04-26 16:51 | 40.77611 | -54.03289 | 38898 ft | 518 kts | 64° |
| 2026-04-26 16:51 | 40.80459 | -53.94561 | 38893 ft | 518 kts | 64° |
| 2026-04-26 16:52 | 40.82824 | -53.87294 | 38896 ft | 518 kts | 64° |
| 2026-04-26 16:52 | 40.86138 | -53.77072 | 38731 ft | 516 kts | 62° |
| 2026-04-26 16:53 | 40.88947 | -53.68381 | 38854 ft | 513 kts | 62° |
| 2026-04-26 16:53 | 40.91743 | -53.59709 | 38895 ft | 513 kts | 62° |
| 2026-04-26 16:54 | 40.94538 | -53.51013 | 38896 ft | 514 kts | 63° |
| 2026-04-26 16:54 | 40.97332 | -53.42291 | 38880 ft | 515 kts | 63° |
| 2026-04-26 16:55 | 41.00108 | -53.33591 | 38879 ft | 516 kts | 63° |
| 2026-04-26 16:55 | 41.02895 | -53.24831 | 38883 ft | 517 kts | 63° |
| 2026-04-26 16:56 | 41.07067 | -53.11665 | 38879 ft | 516 kts | 63° |
| 2026-04-26 16:57 | 41.09836 | -53.02890 | 38875 ft | 516 kts | 63° |
| 2026-04-26 16:57 | 41.13972 | -52.89730 | 38865 ft | 515 kts | 63° |
| 2026-04-26 16:58 | 41.16268 | -52.82399 | 38863 ft | 514 kts | 64° |
| 2026-04-26 16:59 | 41.20807 | -52.67843 | 38855 ft | 512 kts | 64° |
| 2026-04-26 17:00 | 41.26226 | -52.50364 | 38849 ft | 511 kts | 64° |
| 2026-04-26 17:00 | 41.30272 | -52.37237 | 38849 ft | 511 kts | 64° |
| 2026-04-26 17:01 | 41.32961 | -52.28478 | 38844 ft | 512 kts | 64° |
| 2026-04-26 17:01 | 41.35645 | -52.19706 | 38842 ft | 512 kts | 64° |
| 2026-04-26 17:02 | 41.38324 | -52.10921 | 38840 ft | 512 kts | 64° |
| 2026-04-26 17:02 | 41.40892 | -52.02472 | 38833 ft | 513 kts | 64° |
| 2026-04-26 17:03 | 41.43561 | -51.93661 | 38834 ft | 513 kts | 65° |
| 2026-04-26 17:03 | 41.46225 | -51.84839 | 38830 ft | 513 kts | 65° |
| 2026-04-26 17:04 | 41.48879 | -51.76019 | 38828 ft | 513 kts | 65° |
| 2026-04-26 17:04 | 41.51538 | -51.67155 | 38822 ft | 514 kts | 65° |
| 2026-04-26 17:05 | 41.54184 | -51.58301 | 38823 ft | 513 kts | 65° |
| 2026-04-26 17:05 | 41.56821 | -51.49448 | 38827 ft | 513 kts | 65° |
| 2026-04-26 17:06 | 41.59452 | -51.40588 | 38822 ft | 513 kts | 65° |
| 2026-04-26 17:06 | 41.62075 | -51.31721 | 38815 ft | 513 kts | 65° |
| 2026-04-26 17:07 | 41.64709 | -51.22789 | 38810 ft | 513 kts | 65° |
| 2026-04-26 17:07 | 41.67322 | -51.13897 | 38811 ft | 513 kts | 66° |
| 2026-04-26 17:08 | 41.69905 | -51.05076 | 38802 ft | 513 kts | 66° |
| 2026-04-26 17:08 | 41.72515 | -50.96134 | 38800 ft | 512 kts | 66° |
| 2026-04-26 17:09 | 41.74666 | -50.88741 | 38800 ft | 512 kts | 66° |
| 2026-04-26 17:09 | 41.77675 | -50.78360 | 38790 ft | 512 kts | 66° |
| 2026-04-26 17:10 | 41.80248 | -50.69453 | 38782 ft | 512 kts | 66° |
| 2026-04-26 17:10 | 41.82808 | -50.60559 | 38780 ft | 511 kts | 66° |
| 2026-04-26 17:11 | 41.85360 | -50.51661 | 38782 ft | 511 kts | 66° |
| 2026-04-26 17:11 | 41.87904 | -50.42759 | 38777 ft | 511 kts | 67° |
| 2026-04-26 17:12 | 41.91691 | -50.29450 | 38775 ft | 511 kts | 67° |
| 2026-04-26 17:13 | 41.95478 | -50.16074 | 38768 ft | 510 kts | 67° |
| 2026-04-26 17:14 | 41.99244 | -50.02700 | 38762 ft | 510 kts | 67° |
| 2026-04-26 17:14 | 42.02797 | -49.89209 | 38759 ft | 511 kts | 70° |
| 2026-04-26 17:15 | 42.06114 | -49.75603 | 38755 ft | 510 kts | 70° |
| 2026-04-26 17:16 | 42.08345 | -49.66524 | 38754 ft | 510 kts | 70° |
| 2026-04-26 17:16 | 42.10588 | -49.57446 | 38750 ft | 510 kts | 70° |
| 2026-04-26 17:17 | 42.12824 | -49.48371 | 38749 ft | 510 kts | 70° |
| 2026-04-26 17:17 | 42.15050 | -49.39301 | 38745 ft | 510 kts | 70° |
| 2026-04-26 17:18 | 42.17270 | -49.30213 | 38745 ft | 510 kts | 70° |
| 2026-04-26 17:18 | 42.19479 | -49.21130 | 38745 ft | 510 kts | 70° |
| 2026-04-26 17:19 | 42.22781 | -49.07488 | 38743 ft | 510 kts | 71° |
| 2026-04-26 17:19 | 42.24959 | -48.98442 | 38742 ft | 510 kts | 71° |
| 2026-04-26 17:20 | 42.26423 | -48.92347 | 38737 ft | 510 kts | 71° |
| 2026-04-26 17:20 | 42.29324 | -48.80211 | 38740 ft | 510 kts | 71° |
| 2026-04-26 17:21 | 42.31495 | -48.71091 | 38736 ft | 510 kts | 71° |
| 2026-04-26 17:21 | 42.33661 | -48.61953 | 38736 ft | 510 kts | 71° |
| 2026-04-26 17:22 | 42.35818 | -48.52813 | 38738 ft | 510 kts | 71° |
| 2026-04-26 17:22 | 42.37969 | -48.43668 | 38734 ft | 510 kts | 71° |
| 2026-04-26 17:23 | 42.40110 | -48.34523 | 38729 ft | 510 kts | 71° |
| 2026-04-26 17:23 | 42.42245 | -48.25369 | 38729 ft | 510 kts | 71° |
| 2026-04-26 17:24 | 42.44373 | -48.16206 | 38726 ft | 510 kts | 72° |
| 2026-04-26 17:24 | 42.46496 | -48.07027 | 38724 ft | 510 kts | 72° |
| 2026-04-26 17:25 | 42.48609 | -47.97854 | 38720 ft | 510 kts | 72° |
| 2026-04-26 17:25 | 42.50714 | -47.88677 | 38720 ft | 510 kts | 72° |
| 2026-04-26 17:26 | 42.52814 | -47.79486 | 38714 ft | 510 kts | 72° |
| 2026-04-26 17:26 | 42.54905 | -47.70290 | 38713 ft | 510 kts | 72° |
| 2026-04-26 17:27 | 42.56991 | -47.61086 | 38709 ft | 510 kts | 72° |
| 2026-04-26 17:27 | 42.59065 | -47.51889 | 38707 ft | 510 kts | 72° |
| 2026-04-26 17:28 | 42.61136 | -47.42670 | 38705 ft | 510 kts | 72° |
| 2026-04-26 17:28 | 42.63200 | -47.33444 | 38701 ft | 511 kts | 72° |
| 2026-04-26 17:29 | 42.64576 | -47.27271 | 38700 ft | 511 kts | 72° |
| 2026-04-26 17:29 | 42.67303 | -47.14984 | 38697 ft | 511 kts | 73° |
| 2026-04-26 17:30 | 42.69349 | -47.05717 | 38693 ft | 511 kts | 73° |
| 2026-04-26 17:30 | 42.71045 | -46.98008 | 38690 ft | 512 kts | 73° |
| 2026-04-26 17:31 | 42.73076 | -46.88736 | 38691 ft | 512 kts | 73° |
| 2026-04-26 17:31 | 42.75102 | -46.79449 | 38687 ft | 512 kts | 73° |
| 2026-04-26 17:32 | 42.77121 | -46.70153 | 38685 ft | 512 kts | 73° |
| 2026-04-26 17:32 | 42.79132 | -46.60852 | 38679 ft | 512 kts | 73° |
| 2026-04-26 17:33 | 42.81137 | -46.51542 | 38679 ft | 512 kts | 73° |
| 2026-04-26 17:34 | 42.84130 | -46.37559 | 38672 ft | 512 kts | 74° |
| 2026-04-26 17:34 | 42.86116 | -46.28232 | 38674 ft | 512 kts | 74° |
| 2026-04-26 17:35 | 42.88095 | -46.18900 | 38669 ft | 512 kts | 74° |
| 2026-04-26 17:35 | 42.90064 | -46.09567 | 38667 ft | 512 kts | 74° |
| 2026-04-26 17:36 | 42.92026 | -46.00226 | 38666 ft | 512 kts | 75° |
| 2026-04-26 17:36 | 42.93981 | -45.90878 | 38667 ft | 512 kts | 75° |
| 2026-04-26 17:37 | 42.95926 | -45.81536 | 38663 ft | 512 kts | 75° |
| 2026-04-26 17:37 | 42.97869 | -45.72162 | 38663 ft | 512 kts | 75° |
| 2026-04-26 17:38 | 43.00765 | -45.58107 | 38658 ft | 513 kts | 75° |
| 2026-04-26 17:38 | 43.02687 | -45.48724 | 38660 ft | 513 kts | 75° |
| 2026-04-26 17:39 | 43.04604 | -45.39324 | 38657 ft | 513 kts | 75° |
| 2026-04-26 17:39 | 43.06513 | -45.29920 | 38656 ft | 513 kts | 76° |
| 2026-04-26 17:40 | 43.08094 | -45.22095 | 38654 ft | 514 kts | 76° |
| 2026-04-26 17:40 | 43.10310 | -45.11079 | 38653 ft | 514 kts | 76° |
| 2026-04-26 17:41 | 43.12199 | -45.01644 | 38659 ft | 514 kts | 76° |
| 2026-04-26 17:41 | 43.14082 | -44.92193 | 38656 ft | 515 kts | 76° |
| 2026-04-26 17:42 | 43.15956 | -44.82736 | 38657 ft | 515 kts | 76° |
| 2026-04-26 17:42 | 43.17823 | -44.73276 | 38656 ft | 515 kts | 76° |
| 2026-04-26 17:43 | 43.19682 | -44.63810 | 38655 ft | 515 kts | 77° |
| 2026-04-26 17:43 | 43.21540 | -44.54304 | 38657 ft | 515 kts | 77° |
| 2026-04-26 17:44 | 43.23389 | -44.44794 | 38654 ft | 516 kts | 77° |
| 2026-04-26 17:44 | 43.25224 | -44.35310 | 38659 ft | 516 kts | 77° |
| 2026-04-26 17:45 | 43.27058 | -44.25790 | 38655 ft | 516 kts | 77° |
| 2026-04-26 17:45 | 43.28884 | -44.16262 | 38650 ft | 516 kts | 77° |
| 2026-04-26 17:46 | 43.30700 | -44.06738 | 38655 ft | 516 kts | 77° |
| 2026-04-26 17:46 | 43.32511 | -43.97192 | 38653 ft | 516 kts | 77° |
| 2026-04-26 17:47 | 43.34008 | -43.89267 | 38656 ft | 516 kts | 78° |
| 2026-04-26 17:47 | 43.36031 | -43.78504 | 38657 ft | 516 kts | 78° |
| 2026-04-26 17:48 | 43.37818 | -43.68946 | 38656 ft | 516 kts | 78° |
| 2026-04-26 17:48 | 43.39595 | -43.59393 | 38656 ft | 516 kts | 78° |
| 2026-04-26 17:49 | 43.41363 | -43.49841 | 38656 ft | 515 kts | 78° |
| 2026-04-26 17:49 | 43.43122 | -43.40291 | 38657 ft | 515 kts | 78° |
| 2026-04-26 17:50 | 43.44873 | -43.30736 | 38652 ft | 515 kts | 78° |
| 2026-04-26 17:50 | 43.46613 | -43.21189 | 38653 ft | 514 kts | 78° |
| 2026-04-26 17:51 | 43.48344 | -43.11639 | 38650 ft | 514 kts | 78° |
| 2026-04-26 17:51 | 43.50066 | -43.02092 | 38649 ft | 513 kts | 79° |
| 2026-04-26 17:52 | 43.51777 | -42.92559 | 38658 ft | 513 kts | 79° |
| 2026-04-26 17:52 | 43.53480 | -42.83023 | 38651 ft | 513 kts | 79° |
| 2026-04-26 17:53 | 43.55176 | -42.73472 | 38647 ft | 512 kts | 79° |
| 2026-04-26 17:54 | 43.57700 | -42.59165 | 38642 ft | 512 kts | 79° |
| 2026-04-26 17:54 | 43.59372 | -42.49626 | 38646 ft | 512 kts | 79° |
| 2026-04-26 17:55 | 43.61035 | -42.40088 | 38650 ft | 511 kts | 79° |
| 2026-04-26 17:55 | 43.62690 | -42.30541 | 38646 ft | 511 kts | 79° |
| 2026-04-26 17:56 | 43.64337 | -42.20991 | 38642 ft | 511 kts | 80° |
| 2026-04-26 17:57 | 43.67602 | -42.01912 | 38636 ft | 511 kts | 80° |
| 2026-04-26 17:57 | 43.69222 | -41.92364 | 38639 ft | 510 kts | 80° |
| 2026-04-26 17:58 | 43.72436 | -41.73268 | 38636 ft | 510 kts | 81° |
| 2026-04-26 17:59 | 43.74824 | -41.58946 | 38639 ft | 509 kts | 81° |
| 2026-04-26 17:59 | 43.76406 | -41.49390 | 38636 ft | 509 kts | 81° |
| 2026-04-26 18:00 | 43.77977 | -41.39846 | 38634 ft | 509 kts | 81° |
| 2026-04-26 18:00 | 43.79533 | -41.30344 | 38630 ft | 509 kts | 81° |
| 2026-04-26 18:01 | 43.81089 | -41.20787 | 38636 ft | 509 kts | 81° |
| 2026-04-26 18:01 | 43.82637 | -41.11222 | 38631 ft | 509 kts | 81° |
| 2026-04-26 18:02 | 43.83669 | -41.04817 | 38629 ft | 509 kts | 81° |
| 2026-04-26 18:02 | 43.85710 | -40.92079 | 38639 ft | 509 kts | 82° |
| 2026-04-26 18:03 | 43.87234 | -40.82504 | 38628 ft | 509 kts | 82° |
| 2026-04-26 18:03 | 43.88747 | -40.72944 | 38627 ft | 508 kts | 82° |
| 2026-04-26 18:04 | 43.90262 | -40.63311 | 38624 ft | 507 kts | 82° |
| 2026-04-26 18:05 | 43.92491 | -40.49036 | 38617 ft | 507 kts | 82° |
| 2026-04-26 18:05 | 43.93981 | -40.39426 | 38616 ft | 506 kts | 82° |
| 2026-04-26 18:06 | 43.95451 | -40.29885 | 38618 ft | 505 kts | 82° |
| 2026-04-26 18:06 | 43.96901 | -40.20425 | 38614 ft | 505 kts | 82° |
| 2026-04-26 18:07 | 43.98353 | -40.10890 | 38618 ft | 504 kts | 83° |
| 2026-04-26 18:07 | 43.99817 | -40.01308 | 38615 ft | 504 kts | 81° |
| 2026-04-26 18:08 | 44.01881 | -39.92024 | 38614 ft | 508 kts | 75° |
| 2026-04-26 18:08 | 44.04255 | -39.82768 | 38608 ft | 508 kts | 75° |
| 2026-04-26 18:09 | 44.06620 | -39.73517 | 38606 ft | 508 kts | 75° |
| 2026-04-26 18:09 | 44.08944 | -39.64242 | 38604 ft | 508 kts | 75° |
| 2026-04-26 18:10 | 44.11240 | -39.54958 | 38607 ft | 507 kts | 76° |
| 2026-04-26 18:10 | 44.13525 | -39.45673 | 38604 ft | 507 kts | 76° |
| 2026-04-26 18:11 | 44.15804 | -39.36378 | 38601 ft | 507 kts | 76° |
| 2026-04-26 18:11 | 44.18077 | -39.27080 | 38599 ft | 507 kts | 76° |
| 2026-04-26 18:12 | 44.20259 | -39.18121 | 38601 ft | 506 kts | 76° |
| 2026-04-26 18:12 | 44.22135 | -39.10386 | 38599 ft | 506 kts | 76° |
| 2026-04-26 18:13 | 44.24380 | -39.01097 | 38600 ft | 506 kts | 76° |
| 2026-04-26 18:13 | 44.26621 | -38.91786 | 38602 ft | 506 kts | 77° |
| 2026-04-26 18:14 | 44.28848 | -38.82495 | 38597 ft | 505 kts | 77° |
| 2026-04-26 18:14 | 44.31070 | -38.73186 | 38598 ft | 505 kts | 77° |
| 2026-04-26 18:15 | 44.33285 | -38.63867 | 38597 ft | 505 kts | 77° |
| 2026-04-26 18:15 | 44.35490 | -38.54553 | 38604 ft | 505 kts | 77° |
| 2026-04-26 18:16 | 44.37683 | -38.45248 | 38604 ft | 505 kts | 77° |
| 2026-04-26 18:16 | 44.40980 | -38.31186 | 38597 ft | 504 kts | 77° |
| 2026-04-26 18:17 | 44.43152 | -38.21875 | 38596 ft | 504 kts | 78° |
| 2026-04-26 18:17 | 44.45320 | -38.12538 | 38592 ft | 504 kts | 78° |
| 2026-04-26 18:18 | 44.47465 | -38.03264 | 38594 ft | 504 kts | 78° |
| 2026-04-26 18:18 | 44.49626 | -37.93880 | 38595 ft | 503 kts | 78° |
| 2026-04-26 18:19 | 44.51763 | -37.84561 | 38593 ft | 503 kts | 78° |
| 2026-04-26 18:19 | 44.53901 | -37.75199 | 38591 ft | 503 kts | 78° |
| 2026-04-26 18:20 | 44.56022 | -37.65870 | 38592 ft | 503 kts | 78° |
| 2026-04-26 18:20 | 44.57781 | -37.58104 | 38593 ft | 503 kts | 79° |
| 2026-04-26 18:21 | 44.60229 | -37.47246 | 38592 ft | 502 kts | 79° |
| 2026-04-26 18:21 | 44.62328 | -37.37889 | 38592 ft | 502 kts | 79° |
| 2026-04-26 18:22 | 44.64416 | -37.28546 | 38595 ft | 502 kts | 79° |
| 2026-04-26 18:22 | 44.66495 | -37.19201 | 38604 ft | 501 kts | 79° |
| 2026-04-26 18:23 | 44.68564 | -37.09862 | 38600 ft | 500 kts | 79° |
| 2026-04-26 18:23 | 44.70623 | -37.00524 | 38601 ft | 499 kts | 79° |
| 2026-04-26 18:24 | 44.72683 | -36.91142 | 38600 ft | 498 kts | 80° |
| 2026-04-26 18:24 | 44.74702 | -36.81907 | 38607 ft | 497 kts | 80° |
| 2026-04-26 18:25 | 44.76723 | -36.72620 | 38608 ft | 496 kts | 80° |
| 2026-04-26 18:25 | 44.78731 | -36.63350 | 38613 ft | 494 kts | 80° |
| 2026-04-26 18:26 | 44.80726 | -36.54099 | 38620 ft | 494 kts | 80° |
| 2026-04-26 18:26 | 44.82712 | -36.44846 | 38613 ft | 493 kts | 81° |
| 2026-04-26 18:27 | 44.84699 | -36.35553 | 38618 ft | 492 kts | 81° |
| 2026-04-26 18:27 | 44.86667 | -36.26302 | 38625 ft | 492 kts | 81° |
| 2026-04-26 18:28 | 44.88624 | -36.17062 | 38627 ft | 493 kts | 81° |
| 2026-04-26 18:28 | 44.90581 | -36.07784 | 38629 ft | 494 kts | 81° |
| 2026-04-26 18:29 | 44.92533 | -35.98485 | 38636 ft | 495 kts | 81° |
| 2026-04-26 18:29 | 44.94478 | -35.89175 | 38634 ft | 495 kts | 81° |
| 2026-04-26 18:30 | 44.96424 | -35.79825 | 38643 ft | 496 kts | 81° |
| 2026-04-26 18:30 | 44.98362 | -35.70469 | 38636 ft | 497 kts | 81° |
| 2026-04-26 18:31 | 45.00297 | -35.61079 | 38648 ft | 497 kts | 81° |
| 2026-04-26 18:31 | 45.02224 | -35.51691 | 38642 ft | 498 kts | 81° |
| 2026-04-26 18:32 | 45.04143 | -35.42293 | 38643 ft | 498 kts | 81° |
| 2026-04-26 18:32 | 45.06056 | -35.32885 | 38647 ft | 498 kts | 81° |
| 2026-04-26 18:33 | 45.07959 | -35.23479 | 38649 ft | 497 kts | 81° |
| 2026-04-26 18:33 | 45.09854 | -35.14069 | 38653 ft | 497 kts | 81° |
| 2026-04-26 18:34 | 45.11739 | -35.04664 | 38661 ft | 496 kts | 81° |
| 2026-04-26 18:34 | 45.13610 | -34.95280 | 38670 ft | 496 kts | 82° |
| 2026-04-26 18:35 | 45.15479 | -34.85863 | 38672 ft | 496 kts | 82° |
| 2026-04-26 18:35 | 45.17337 | -34.76461 | 38682 ft | 495 kts | 82° |
| 2026-04-26 18:36 | 45.19183 | -34.67072 | 38691 ft | 495 kts | 82° |
| 2026-04-26 18:36 | 45.21022 | -34.57671 | 38697 ft | 495 kts | 82° |
| 2026-04-26 18:37 | 45.22854 | -34.48261 | 38706 ft | 495 kts | 82° |
| 2026-04-26 18:37 | 45.24687 | -34.38797 | 38714 ft | 495 kts | 82° |
| 2026-04-26 18:38 | 45.26503 | -34.29377 | 38723 ft | 495 kts | 82° |
| 2026-04-26 18:38 | 45.28313 | -34.19944 | 38728 ft | 495 kts | 82° |
| 2026-04-26 18:39 | 45.30099 | -34.10587 | 38737 ft | 495 kts | 82° |
| 2026-04-26 18:39 | 45.31894 | -34.01136 | 38742 ft | 495 kts | 82° |
| 2026-04-26 18:40 | 45.33694 | -33.91618 | 38750 ft | 495 kts | 82° |
| 2026-04-26 18:40 | 45.35473 | -33.82163 | 38770 ft | 496 kts | 82° |
| 2026-04-26 18:41 | 45.37245 | -33.72691 | 38772 ft | 496 kts | 82° |
| 2026-04-26 18:41 | 45.39012 | -33.63199 | 38776 ft | 496 kts | 82° |
| 2026-04-26 18:42 | 45.40768 | -33.53722 | 38776 ft | 496 kts | 82° |
| 2026-04-26 18:42 | 45.42518 | -33.44226 | 38778 ft | 496 kts | 82° |
| 2026-04-26 18:43 | 45.44262 | -33.34719 | 38785 ft | 496 kts | 82° |
| 2026-04-26 18:43 | 45.45995 | -33.25216 | 38802 ft | 496 kts | 82° |
| 2026-04-26 18:44 | 45.47722 | -33.15703 | 38807 ft | 496 kts | 82° |
| 2026-04-26 18:44 | 45.49442 | -33.06172 | 38811 ft | 496 kts | 82° |
| 2026-04-26 18:45 | 45.51156 | -32.96631 | 38817 ft | 497 kts | 82° |
| 2026-04-26 18:45 | 45.52862 | -32.87082 | 38828 ft | 497 kts | 82° |
| 2026-04-26 18:46 | 45.54558 | -32.77538 | 38837 ft | 497 kts | 82° |
| 2026-04-26 18:46 | 45.56248 | -32.67980 | 38853 ft | 497 kts | 82° |
| 2026-04-26 18:47 | 45.57931 | -32.58405 | 38849 ft | 498 kts | 82° |
| 2026-04-26 18:47 | 45.59608 | -32.48817 | 38857 ft | 498 kts | 82° |
| 2026-04-26 18:48 | 45.61277 | -32.39224 | 38863 ft | 498 kts | 82° |
| 2026-04-26 18:48 | 45.62939 | -32.29617 | 38866 ft | 498 kts | 82° |
| 2026-04-26 18:49 | 45.64589 | -32.20028 | 38878 ft | 498 kts | 82° |
| 2026-04-26 18:49 | 45.66234 | -32.10414 | 38885 ft | 498 kts | 82° |
| 2026-04-26 18:50 | 45.67871 | -32.00800 | 38891 ft | 498 kts | 82° |
| 2026-04-26 18:50 | 45.69500 | -31.91172 | 38901 ft | 498 kts | 82° |
| 2026-04-26 18:51 | 45.70847 | -31.83174 | 38901 ft | 498 kts | 82° |
| 2026-04-26 18:51 | 45.72461 | -31.73544 | 38908 ft | 498 kts | 82° |
| 2026-04-26 18:52 | 45.74066 | -31.63908 | 38911 ft | 498 kts | 82° |
| 2026-04-26 18:52 | 45.75663 | -31.54271 | 38924 ft | 498 kts | 82° |
| 2026-04-26 18:53 | 45.77255 | -31.44605 | 38930 ft | 498 kts | 82° |
| 2026-04-26 18:53 | 45.78835 | -31.34960 | 38932 ft | 498 kts | 81° |
| 2026-04-26 18:54 | 45.80407 | -31.25305 | 38941 ft | 497 kts | 81° |
| 2026-04-26 18:54 | 45.81973 | -31.15638 | 38942 ft | 497 kts | 81° |
| 2026-04-26 18:55 | 45.83527 | -31.05983 | 38954 ft | 497 kts | 81° |
| 2026-04-26 18:55 | 45.85072 | -30.96328 | 38955 ft | 497 kts | 81° |
| 2026-04-26 18:56 | 45.86610 | -30.86669 | 38968 ft | 497 kts | 81° |
| 2026-04-26 18:56 | 45.88139 | -30.77005 | 38967 ft | 496 kts | 81° |
| 2026-04-26 18:57 | 45.89412 | -30.68910 | 38977 ft | 496 kts | 81° |
| 2026-04-26 18:57 | 45.91171 | -30.57666 | 38982 ft | 496 kts | 81° |
| 2026-04-26 18:58 | 45.92674 | -30.47996 | 38978 ft | 496 kts | 81° |
| 2026-04-26 18:58 | 45.94169 | -30.38318 | 38992 ft | 496 kts | 81° |
| 2026-04-26 18:59 | 45.95657 | -30.28624 | 38996 ft | 497 kts | 81° |
| 2026-04-26 18:59 | 45.97138 | -30.18924 | 39001 ft | 497 kts | 81° |
| 2026-04-26 19:00 | 45.98609 | -30.09230 | 39009 ft | 497 kts | 81° |
| 2026-04-26 19:00 | 46.00072 | -29.99530 | 39014 ft | 497 kts | 81° |
| 2026-04-26 19:01 | 46.01499 | -29.89811 | 39017 ft | 497 kts | 81° |
| 2026-04-26 19:01 | 46.02898 | -29.80083 | 39022 ft | 497 kts | 81° |
| 2026-04-26 19:02 | 46.04297 | -29.70311 | 39030 ft | 497 kts | 81° |
| 2026-04-26 19:02 | 46.05463 | -29.62140 | 39034 ft | 498 kts | 81° |
| 2026-04-26 19:03 | 46.07073 | -29.50794 | 39037 ft | 498 kts | 81° |
| 2026-04-26 19:03 | 46.08454 | -29.41006 | 39046 ft | 498 kts | 81° |
| 2026-04-26 19:04 | 46.09822 | -29.31234 | 39050 ft | 498 kts | 81° |
| 2026-04-26 19:04 | 46.11188 | -29.21415 | 39043 ft | 498 kts | 81° |
| 2026-04-26 19:05 | 46.13210 | -29.06760 | 39061 ft | 497 kts | 81° |
| 2026-04-26 19:06 | 46.14149 | -28.99908 | 39070 ft | 497 kts | 81° |
| 2026-04-26 19:06 | 46.15481 | -28.90127 | 39069 ft | 497 kts | 81° |
| 2026-04-26 19:07 | 46.16806 | -28.80330 | 39071 ft | 497 kts | 81° |
| 2026-04-26 19:07 | 46.18118 | -28.70558 | 39076 ft | 496 kts | 81° |
| 2026-04-26 19:08 | 46.19423 | -28.60776 | 39082 ft | 496 kts | 81° |
| 2026-04-26 19:08 | 46.20720 | -28.50993 | 39092 ft | 496 kts | 81° |
| 2026-04-26 19:09 | 46.22006 | -28.41215 | 39091 ft | 496 kts | 81° |
| 2026-04-26 19:09 | 46.23286 | -28.31424 | 39096 ft | 496 kts | 81° |
| 2026-04-26 19:10 | 46.24556 | -28.21639 | 39101 ft | 496 kts | 81° |
| 2026-04-26 19:10 | 46.25818 | -28.11843 | 39108 ft | 495 kts | 81° |
| 2026-04-26 19:11 | 46.27070 | -28.02055 | 39113 ft | 495 kts | 81° |
| 2026-04-26 19:11 | 46.28313 | -27.92271 | 39119 ft | 495 kts | 81° |
| 2026-04-26 19:12 | 46.29547 | -27.82485 | 39124 ft | 494 kts | 81° |
| 2026-04-26 19:12 | 46.30769 | -27.72722 | 39127 ft | 493 kts | 81° |
| 2026-04-26 19:13 | 46.31983 | -27.62955 | 39132 ft | 493 kts | 80° |
| 2026-04-26 19:13 | 46.33186 | -27.53207 | 39136 ft | 492 kts | 80° |
| 2026-04-26 19:14 | 46.34379 | -27.43468 | 39138 ft | 491 kts | 80° |
| 2026-04-26 19:14 | 46.35562 | -27.33738 | 39142 ft | 491 kts | 80° |
| 2026-04-26 19:15 | 46.36736 | -27.24007 | 39142 ft | 490 kts | 80° |
| 2026-04-26 19:15 | 46.37901 | -27.14282 | 39148 ft | 490 kts | 80° |
| 2026-04-26 19:16 | 46.39058 | -27.04557 | 39153 ft | 490 kts | 80° |
| 2026-04-26 19:16 | 46.40206 | -26.94828 | 39161 ft | 490 kts | 81° |
| 2026-04-26 19:17 | 46.41346 | -26.85086 | 39164 ft | 490 kts | 81° |
| 2026-04-26 19:17 | 46.42479 | -26.75340 | 39170 ft | 491 kts | 81° |
| 2026-04-26 19:18 | 46.43604 | -26.65577 | 39172 ft | 491 kts | 81° |
| 2026-04-26 19:18 | 46.44721 | -26.55813 | 39185 ft | 491 kts | 81° |
| 2026-04-26 19:19 | 46.45831 | -26.46034 | 39187 ft | 491 kts | 81° |
| 2026-04-26 19:19 | 46.46926 | -26.36313 | 39175 ft | 492 kts | 81° |
| 2026-04-26 19:20 | 46.48020 | -26.26522 | 39181 ft | 492 kts | 81° |
| 2026-04-26 19:20 | 46.49105 | -26.16728 | 39192 ft | 492 kts | 81° |
| 2026-04-26 19:21 | 46.50182 | -26.06932 | 39200 ft | 491 kts | 81° |
| 2026-04-26 19:21 | 46.51250 | -25.97136 | 39197 ft | 491 kts | 81° |
| 2026-04-26 19:22 | 46.52309 | -25.87342 | 39210 ft | 491 kts | 81° |
| 2026-04-26 19:22 | 46.53359 | -25.77549 | 39200 ft | 490 kts | 81° |
| 2026-04-26 19:23 | 46.54398 | -25.67771 | 39198 ft | 490 kts | 81° |
| 2026-04-26 19:23 | 46.55429 | -25.57994 | 39206 ft | 489 kts | 81° |
| 2026-04-26 19:24 | 46.56450 | -25.48234 | 39218 ft | 488 kts | 81° |
| 2026-04-26 19:24 | 46.57962 | -25.33617 | 39223 ft | 487 kts | 81° |
| 2026-04-26 19:25 | 46.58629 | -25.27109 | 39227 ft | 487 kts | 81° |
| 2026-04-26 19:25 | 46.59943 | -25.14169 | 39227 ft | 485 kts | 82° |
| 2026-04-26 19:26 | 46.60919 | -25.04471 | 39238 ft | 484 kts | 82° |
| 2026-04-26 19:26 | 46.61885 | -24.94779 | 39237 ft | 484 kts | 82° |
| 2026-04-26 19:27 | 46.62840 | -24.85105 | 39233 ft | 483 kts | 82° |
| 2026-04-26 19:27 | 46.63787 | -24.75436 | 39242 ft | 482 kts | 82° |
| 2026-04-26 19:28 | 46.64725 | -24.65775 | 39237 ft | 482 kts | 82° |
| 2026-04-26 19:28 | 46.65654 | -24.56117 | 39250 ft | 482 kts | 82° |
| 2026-04-26 19:29 | 46.66575 | -24.46455 | 39246 ft | 482 kts | 82° |
| 2026-04-26 19:29 | 46.67487 | -24.36798 | 39256 ft | 482 kts | 82° |
| 2026-04-26 19:30 | 46.68390 | -24.27140 | 39251 ft | 482 kts | 82° |
| 2026-04-26 19:30 | 46.68985 | -24.20734 | 39259 ft | 482 kts | 82° |
| 2026-04-26 19:31 | 46.70169 | -24.07862 | 39258 ft | 482 kts | 82° |
| 2026-04-26 19:31 | 46.71048 | -23.98189 | 39254 ft | 482 kts | 82° |
| 2026-04-26 19:32 | 46.71921 | -23.88501 | 39263 ft | 482 kts | 82° |
| 2026-04-26 19:32 | 46.72784 | -23.78821 | 39269 ft | 482 kts | 82° |
| 2026-04-26 19:33 | 46.73639 | -23.69143 | 39260 ft | 482 kts | 82° |
| 2026-04-26 19:33 | 46.74486 | -23.59457 | 39266 ft | 481 kts | 82° |
| 2026-04-26 19:34 | 46.75324 | -23.49778 | 39272 ft | 481 kts | 82° |
| 2026-04-26 19:34 | 46.76154 | -23.40101 | 39273 ft | 481 kts | 83° |
| 2026-04-26 19:35 | 46.76975 | -23.30420 | 39276 ft | 481 kts | 83° |
| 2026-04-26 19:35 | 46.77788 | -23.20745 | 39278 ft | 480 kts | 83° |
| 2026-04-26 19:36 | 46.78326 | -23.14277 | 39282 ft | 480 kts | 83° |
| 2026-04-26 19:36 | 46.79253 | -23.03033 | 39284 ft | 480 kts | 83° |
| 2026-04-26 19:37 | 46.80042 | -22.93354 | 39282 ft | 480 kts | 83° |
| 2026-04-26 19:37 | 46.80823 | -22.83676 | 39282 ft | 480 kts | 83° |
| 2026-04-26 19:38 | 46.81595 | -22.73995 | 39291 ft | 480 kts | 83° |
| 2026-04-26 19:38 | 46.82359 | -22.64316 | 39297 ft | 480 kts | 83° |
| 2026-04-26 19:39 | 46.83116 | -22.54620 | 39295 ft | 480 kts | 83° |
| 2026-04-26 19:39 | 46.83864 | -22.44928 | 39286 ft | 480 kts | 83° |
| 2026-04-26 19:40 | 46.84604 | -22.35230 | 39295 ft | 480 kts | 83° |
| 2026-04-26 19:40 | 46.85336 | -22.25531 | 39299 ft | 480 kts | 83° |
| 2026-04-26 19:41 | 46.86059 | -22.15848 | 39293 ft | 480 kts | 83° |
| 2026-04-26 19:41 | 46.86654 | -22.07780 | 39294 ft | 480 kts | 83° |
| 2026-04-26 19:42 | 46.87479 | -21.96469 | 39298 ft | 479 kts | 83° |
| 2026-04-26 19:42 | 46.88175 | -21.86800 | 39294 ft | 478 kts | 83° |
| 2026-04-26 19:43 | 46.88862 | -21.77147 | 39299 ft | 477 kts | 83° |
| 2026-04-26 19:43 | 46.89540 | -21.67505 | 39298 ft | 476 kts | 83° |
| 2026-04-26 19:44 | 46.90208 | -21.57878 | 39296 ft | 475 kts | 83° |
| 2026-04-26 19:44 | 46.90868 | -21.48263 | 39301 ft | 475 kts | 83° |
| 2026-04-26 19:45 | 46.91518 | -21.38662 | 39299 ft | 474 kts | 83° |
| 2026-04-26 19:45 | 46.92156 | -21.29126 | 39298 ft | 474 kts | 83° |
| 2026-04-26 19:46 | 46.92790 | -21.19520 | 39293 ft | 474 kts | 83° |
| 2026-04-26 19:46 | 46.93417 | -21.09908 | 39297 ft | 475 kts | 83° |
| 2026-04-26 19:47 | 46.93936 | -21.01848 | 39300 ft | 475 kts | 83° |
| 2026-04-26 19:47 | 46.94647 | -20.90656 | 39302 ft | 476 kts | 83° |
| 2026-04-26 19:48 | 46.95251 | -20.81005 | 39311 ft | 476 kts | 83° |
| 2026-04-26 19:48 | 46.95847 | -20.71352 | 39303 ft | 477 kts | 83° |
| 2026-04-26 19:49 | 46.96437 | -20.61679 | 39303 ft | 477 kts | 83° |
| 2026-04-26 19:49 | 46.97018 | -20.52001 | 39302 ft | 477 kts | 83° |
| 2026-04-26 19:50 | 46.97591 | -20.42319 | 39301 ft | 478 kts | 83° |
| 2026-04-26 19:50 | 46.98156 | -20.32632 | 39303 ft | 478 kts | 83° |
| 2026-04-26 19:51 | 46.98714 | -20.22937 | 39301 ft | 478 kts | 83° |
| 2026-04-26 19:51 | 46.99264 | -20.13240 | 39303 ft | 478 kts | 83° |
| 2026-04-26 19:52 | 46.99830 | -20.03551 | 39302 ft | 477 kts | 81° |
| 2026-04-26 19:52 | 47.01221 | -19.94109 | 39301 ft | 473 kts | 69° |
| 2026-04-26 19:53 | 47.03297 | -19.84970 | 39309 ft | 473 kts | 69° |
| 2026-04-26 19:53 | 47.05397 | -19.75837 | 39298 ft | 473 kts | 69° |
| 2026-04-26 19:54 | 47.07464 | -19.66677 | 39301 ft | 473 kts | 69° |
| 2026-04-26 19:54 | 47.09504 | -19.57499 | 39299 ft | 473 kts | 69° |
| 2026-04-26 19:55 | 47.11532 | -19.48309 | 39299 ft | 473 kts | 69° |
| 2026-04-26 19:55 | 47.13551 | -19.39122 | 39302 ft | 473 kts | 69° |
| 2026-04-26 19:56 | 47.15562 | -19.29936 | 39300 ft | 472 kts | 69° |
| 2026-04-26 19:56 | 47.17565 | -19.20749 | 39299 ft | 472 kts | 69° |
| 2026-04-26 19:57 | 47.19544 | -19.11630 | 39296 ft | 471 kts | 70° |
| 2026-04-26 19:57 | 47.21526 | -19.02459 | 39297 ft | 470 kts | 70° |
| 2026-04-26 19:58 | 47.23499 | -18.93288 | 39297 ft | 470 kts | 70° |
| 2026-04-26 19:58 | 47.25460 | -18.84129 | 39295 ft | 469 kts | 70° |
| 2026-04-26 19:59 | 47.27412 | -18.74975 | 39293 ft | 468 kts | 70° |
| 2026-04-26 19:59 | 47.29352 | -18.65834 | 39292 ft | 467 kts | 70° |
| 2026-04-26 20:00 | 47.31282 | -18.56700 | 39293 ft | 467 kts | 70° |
| 2026-04-26 20:00 | 47.33202 | -18.47576 | 39298 ft | 466 kts | 70° |
| 2026-04-26 20:01 | 47.35114 | -18.38446 | 39297 ft | 466 kts | 70° |
| 2026-04-26 20:01 | 47.37017 | -18.29315 | 39294 ft | 466 kts | 70° |
| 2026-04-26 20:02 | 47.38913 | -18.20181 | 39294 ft | 466 kts | 70° |
| 2026-04-26 20:02 | 47.40485 | -18.12576 | 39292 ft | 466 kts | 70° |
| 2026-04-26 20:03 | 47.42693 | -18.01846 | 39299 ft | 468 kts | 70° |
| 2026-04-26 20:03 | 47.44577 | -17.92642 | 39298 ft | 469 kts | 70° |
| 2026-04-26 20:04 | 47.46457 | -17.83413 | 39298 ft | 470 kts | 71° |
| 2026-04-26 20:04 | 47.48336 | -17.74149 | 39292 ft | 471 kts | 71° |
| 2026-04-26 20:05 | 47.50198 | -17.64925 | 39299 ft | 472 kts | 71° |
| 2026-04-26 20:05 | 47.52068 | -17.55613 | 39298 ft | 473 kts | 71° |
| 2026-04-26 20:06 | 47.53934 | -17.46282 | 39300 ft | 473 kts | 71° |
| 2026-04-26 20:06 | 47.55794 | -17.36936 | 39297 ft | 473 kts | 71° |
| 2026-04-26 20:07 | 47.57646 | -17.27585 | 39297 ft | 473 kts | 71° |
| 2026-04-26 20:07 | 47.59488 | -17.18238 | 39299 ft | 473 kts | 71° |
| 2026-04-26 20:08 | 47.61321 | -17.08893 | 39301 ft | 472 kts | 71° |
| 2026-04-26 20:08 | 47.63145 | -16.99547 | 39303 ft | 472 kts | 71° |
| 2026-04-26 20:09 | 47.64961 | -16.90198 | 39305 ft | 471 kts | 71° |
| 2026-04-26 20:09 | 47.66767 | -16.80854 | 39305 ft | 471 kts | 71° |
| 2026-04-26 20:10 | 47.68565 | -16.71506 | 39306 ft | 471 kts | 71° |
| 2026-04-26 20:10 | 47.70355 | -16.62158 | 39305 ft | 471 kts | 71° |
| 2026-04-26 20:11 | 47.72134 | -16.52814 | 39307 ft | 471 kts | 71° |
| 2026-04-26 20:12 | 47.74791 | -16.38776 | 39308 ft | 470 kts | 71° |
| 2026-04-26 20:12 | 47.76553 | -16.29411 | 39312 ft | 470 kts | 71° |
| 2026-04-26 20:13 | 47.78306 | -16.20048 | 39311 ft | 470 kts | 71° |
| 2026-04-26 20:13 | 47.80051 | -16.10673 | 39309 ft | 470 kts | 71° |
| 2026-04-26 20:14 | 47.81790 | -16.01290 | 39315 ft | 470 kts | 71° |
| 2026-04-26 20:14 | 47.83519 | -15.91913 | 39313 ft | 470 kts | 72° |
| 2026-04-26 20:15 | 47.85241 | -15.82525 | 39317 ft | 470 kts | 72° |
| 2026-04-26 20:15 | 47.86944 | -15.73191 | 39314 ft | 470 kts | 72° |
| 2026-04-26 20:16 | 47.88650 | -15.63795 | 39320 ft | 470 kts | 72° |
| 2026-04-26 20:16 | 47.90348 | -15.54394 | 39310 ft | 470 kts | 72° |
| 2026-04-26 20:17 | 47.92036 | -15.44998 | 39311 ft | 469 kts | 72° |
| 2026-04-26 20:17 | 47.93445 | -15.37121 | 39324 ft | 469 kts | 72° |